Time;durP1;ratioP1;P1;durP2;ratioP2;P2;SDS_P1;SDS_P2;PMS_P1;PMS_P2;Temp;Humidity;BMP_temperature;BMP_pressure;BME280_temperature;BME280_humidity;BME280_pressure;Samples;Min_cycle;Max_cycle;Signal;HPM_P1;HPM_P2
2021/12/10 00:01:51;;;;;;;;;;;4.20;42.70;;;;;;4980045;28;19926;-79
2021/12/10 00:04:20;;;;;;;;;;;4.20;43.30;;;;;;4974262;28;19922;-79
2021/12/10 00:06:53;;;;;;;;;;;4.20;44.00;;;;;;4968853;28;20329;-78
2021/12/10 00:09:22;;;;;;;;;;;4.10;44.40;;;;;;4977026;28;19930;-79
2021/12/10 00:11:51;;;;;;;;;;;4.10;44.00;;;;;;4981804;28;19926;-78
2021/12/10 00:14:19;;;;;;;;;;;4.00;44.30;;;;;;4973399;28;19923;-79
2021/12/10 00:16:46;;;;;;;;;;;3.90;44.90;;;;;;4978327;28;19926;-79
2021/12/10 00:19:39;;;;;;;;;;;3.90;44.80;;;;;;4964350;28;20363;-80
2021/12/10 00:22:05;;;;;;;;;;;3.90;44.40;;;;;;4958095;28;19922;-80
2021/12/10 00:24:32;;;;;;;;;;;4.00;44.30;;;;;;4973556;28;20449;-80
2021/12/10 00:27:07;;;;;;;;;;;4.00;44.50;;;;;;4973146;28;19922;-80
2021/12/10 00:29:35;;;;;;;;;;;4.00;43.80;;;;;;4969065;28;19926;-81
2021/12/10 00:32:05;;;;;;;;;;;4.00;44.30;;;;;;4977536;28;19922;-80
2021/12/10 00:34:38;;;;;;;;;;;3.90;44.70;;;;;;4970691;28;19973;-80
2021/12/10 00:37:08;;;;;;;;;;;3.90;44.90;;;;;;4970839;28;19922;-81
2021/12/10 00:39:40;;;;;;;;;;;3.90;45.50;;;;;;4957677;28;19922;-78
2021/12/10 00:42:08;;;;;;;;;;;3.90;45.10;;;;;;4968395;28;20383;-81
2021/12/10 00:44:34;;;;;;;;;;;3.80;45.40;;;;;;4965292;28;19922;-80
2021/12/10 00:47:02;;;;;;;;;;;3.80;45.10;;;;;;4976686;28;20267;-81
2021/12/10 00:49:29;;;;;;;;;;;3.80;45.50;;;;;;4974345;28;19965;-79
2021/12/10 00:51:56;;;;;;;;;;;3.70;45.40;;;;;;4967362;28;20425;-77
2021/12/10 00:54:22;;;;;;;;;;;3.70;45.50;;;;;;4963858;28;19938;-80
2021/12/10 00:56:50;;;;;;;;;;;3.70;45.80;;;;;;4977256;28;20294;-79
2021/12/10 00:59:19;;;;;;;;;;;3.70;45.60;;;;;;4963874;28;20027;-81
2021/12/10 01:01:47;;;;;;;;;;;3.60;45.60;;;;;;4976077;28;19937;-79
2021/12/10 01:04:22;;;;;;;;;;;3.60;46.20;;;;;;4977449;28;19926;-78
2021/12/10 01:06:50;;;;;;;;;;;3.60;45.80;;;;;;4957923;28;20384;-79
2021/12/10 01:09:20;;;;;;;;;;;3.60;46.00;;;;;;4974748;28;20264;-78
2021/12/10 01:11:52;;;;;;;;;;;3.70;45.90;;;;;;4962455;28;20290;-80
2021/12/10 01:14:34;;;;;;;;;;;3.60;46.30;;;;;;4966140;28;20548;-78
2021/12/10 01:25:33;;;;;;;;;;;3.60;45.10;;;;;;4970860;28;20330;-79
2021/12/10 01:28:01;;;;;;;;;;;3.60;46.00;;;;;;4967256;28;19922;-80
2021/12/10 01:30:31;;;;;;;;;;;3.60;46.20;;;;;;4970635;28;19923;-77
2021/12/10 01:33:03;;;;;;;;;;;3.50;45.90;;;;;;4975853;28;19925;-79
2021/12/10 01:35:31;;;;;;;;;;;3.50;45.50;;;;;;4973990;28;19926;-80
2021/12/10 01:37:59;;;;;;;;;;;3.60;45.30;;;;;;4969164;28;19930;-81
2021/12/10 01:40:27;;;;;;;;;;;3.60;45.50;;;;;;4971912;28;20367;-80
2021/12/10 01:43:01;;;;;;;;;;;3.60;45.50;;;;;;4976934;28;19922;-78
2021/12/10 01:45:30;;;;;;;;;;;3.70;45.50;;;;;;4976227;28;19937;-80
2021/12/10 01:47:59;;;;;;;;;;;3.70;45.00;;;;;;4973122;28;19950;-78
2021/12/10 01:50:27;;;;;;;;;;;3.70;44.90;;;;;;4964874;28;19926;-78
2021/12/10 01:52:55;;;;;;;;;;;3.70;45.10;;;;;;4969618;28;19932;-79
2021/12/10 01:55:23;;;;;;;;;;;3.70;45.40;;;;;;4972326;28;19926;-78
2021/12/10 01:57:50;;;;;;;;;;;3.70;45.30;;;;;;4970936;28;19922;-80
2021/12/10 02:00:20;;;;;;;;;;;3.70;45.60;;;;;;4974461;28;19922;-80
2021/12/10 02:02:47;;;;;;;;;;;3.60;45.60;;;;;;4972776;28;19946;-80
2021/12/10 02:05:15;;;;;;;;;;;3.60;45.20;;;;;;4958887;28;20421;-80
2021/12/10 02:07:42;;;;;;;;;;;3.60;46.00;;;;;;4961540;28;19922;-79
2021/12/10 02:10:10;;;;;;;;;;;3.50;46.40;;;;;;4978900;28;20000;-80
2021/12/10 02:12:37;;;;;;;;;;;3.50;46.80;;;;;;4982543;28;19962;-80
2021/12/10 02:15:04;;;;;;;;;;;3.40;46.80;;;;;;4965151;28;19931;-80
2021/12/10 02:17:34;;;;;;;;;;;3.40;46.60;;;;;;4979195;28;19923;-81
2021/12/10 02:20:03;;;;;;;;;;;3.30;47.20;;;;;;4980940;28;19926;-80
2021/12/10 02:22:30;;;;;;;;;;;3.30;46.60;;;;;;4961431;28;19922;-78
2021/12/10 02:24:57;;;;;;;;;;;3.30;46.20;;;;;;4966289;28;19926;-81
2021/12/10 02:27:24;;;;;;;;;;;3.30;46.80;;;;;;4980050;28;19938;-80
2021/12/10 02:29:51;;;;;;;;;;;3.30;46.30;;;;;;4972445;28;19922;-81
2021/12/10 02:32:17;;;;;;;;;;;3.30;46.80;;;;;;4978287;28;19926;-78
2021/12/10 02:34:46;;;;;;;;;;;3.30;47.00;;;;;;4979187;28;19969;-80
2021/12/10 02:37:13;;;;;;;;;;;3.30;47.80;;;;;;4979453;28;19922;-80
2021/12/10 02:39:40;;;;;;;;;;;3.30;47.00;;;;;;4969368;28;19929;-79
2021/12/10 02:42:07;;;;;;;;;;;3.30;47.30;;;;;;4965445;28;19926;-80
2021/12/10 02:44:34;;;;;;;;;;;3.30;47.30;;;;;;4984699;28;19926;-78
2021/12/10 02:47:01;;;;;;;;;;;3.20;47.70;;;;;;4964313;28;20355;-79
2021/12/10 02:49:28;;;;;;;;;;;3.20;47.70;;;;;;4955738;29;19930;-81
2021/12/10 02:51:55;;;;;;;;;;;3.20;47.70;;;;;;4962033;28;19934;-80
2021/12/10 02:54:32;;;;;;;;;;;3.20;47.90;;;;;;4978043;28;19923;-80
2021/12/10 02:57:01;;;;;;;;;;;3.20;47.60;;;;;;4980166;28;19937;-80
2021/12/10 02:59:28;;;;;;;;;;;3.30;47.50;;;;;;4979204;28;19973;-77
2021/12/10 03:01:56;;;;;;;;;;;3.20;47.30;;;;;;4982455;28;20385;-80
2021/12/10 03:04:23;;;;;;;;;;;3.20;47.70;;;;;;4977185;28;19922;-80
2021/12/10 03:06:52;;;;;;;;;;;3.20;48.10;;;;;;4968354;28;19981;-77
2021/12/10 03:09:20;;;;;;;;;;;3.20;48.10;;;;;;4973514;28;19930;-80
2021/12/10 03:11:49;;;;;;;;;;;3.20;49.10;;;;;;4971076;28;19929;-80
2021/12/10 03:14:17;;;;;;;;;;;3.10;49.30;;;;;;4974035;28;19955;-78
2021/12/10 03:16:45;;;;;;;;;;;3.10;49.40;;;;;;4970887;28;19926;-79
2021/12/10 03:19:12;;;;;;;;;;;3.10;49.80;;;;;;4976035;28;20051;-80
2021/12/10 03:21:42;;;;;;;;;;;3.00;49.80;;;;;;4983370;28;19942;-80
2021/12/10 03:24:09;;;;;;;;;;;2.90;50.00;;;;;;4963522;28;19926;-78
2021/12/10 03:26:36;;;;;;;;;;;2.90;50.30;;;;;;4969440;28;19925;-79
2021/12/10 03:29:03;;;;;;;;;;;2.80;50.60;;;;;;4979849;28;20370;-78
2021/12/10 03:31:30;;;;;;;;;;;2.80;50.20;;;;;;4980662;28;20371;-79
2021/12/10 03:33:57;;;;;;;;;;;2.80;50.30;;;;;;4964959;28;19946;-80
2021/12/10 03:36:25;;;;;;;;;;;2.80;50.10;;;;;;4960972;28;19926;-80
2021/12/10 03:38:53;;;;;;;;;;;2.80;50.20;;;;;;4971552;28;19933;-80
2021/12/10 03:41:20;;;;;;;;;;;2.80;50.50;;;;;;4967569;28;19929;-81
2021/12/10 03:43:47;;;;;;;;;;;2.80;50.30;;;;;;4972340;28;19929;-80
2021/12/10 03:46:15;;;;;;;;;;;2.80;50.30;;;;;;4962279;28;19925;-80
2021/12/10 03:48:45;;;;;;;;;;;2.80;50.30;;;;;;4961725;28;19923;-80
2021/12/10 03:51:14;;;;;;;;;;;2.90;49.90;;;;;;4975935;28;19976;-80
2021/12/10 03:53:41;;;;;;;;;;;2.90;50.00;;;;;;4976194;28;19922;-80
2021/12/10 03:56:10;;;;;;;;;;;2.90;49.90;;;;;;4964065;28;19996;-80
2021/12/10 03:58:37;;;;;;;;;;;2.90;49.80;;;;;;4978113;28;19926;-81
2021/12/10 04:01:06;;;;;;;;;;;2.90;49.40;;;;;;4962089;28;19923;-79
2021/12/10 04:03:34;;;;;;;;;;;3.00;49.30;;;;;;4964552;28;19969;-81
2021/12/10 04:06:01;;;;;;;;;;;3.00;49.30;;;;;;4969577;28;19973;-79
2021/12/10 04:08:28;;;;;;;;;;;3.00;49.00;;;;;;4980294;28;19926;-79
2021/12/10 04:10:56;;;;;;;;;;;3.00;49.30;;;;;;4970337;28;19922;-80
2021/12/10 04:13:23;;;;;;;;;;;3.00;49.70;;;;;;4969079;28;20433;-80
2021/12/10 04:15:50;;;;;;;;;;;3.00;49.30;;;;;;4974019;28;19951;-79
2021/12/10 04:18:17;;;;;;;;;;;3.00;49.30;;;;;;4977693;28;20430;-80
2021/12/10 04:20:44;;;;;;;;;;;3.00;50.00;;;;;;4975070;28;19953;-80
2021/12/10 04:23:13;;;;;;;;;;;2.90;50.00;;;;;;4975475;28;20405;-81
2021/12/10 04:25:41;;;;;;;;;;;2.90;50.30;;;;;;4976978;28;19922;-78
2021/12/10 04:28:09;;;;;;;;;;;2.90;50.60;;;;;;4962796;28;20025;-78
2021/12/10 04:30:39;;;;;;;;;;;2.80;50.50;;;;;;4967663;28;19922;-79
2021/12/10 04:33:07;;;;;;;;;;;2.80;50.30;;;;;;4977852;28;20004;-80
2021/12/10 04:35:35;;;;;;;;;;;2.90;50.30;;;;;;4961841;28;19930;-80
2021/12/10 04:38:02;;;;;;;;;;;2.90;50.10;;;;;;4958397;28;19946;-77
2021/12/10 04:40:30;;;;;;;;;;;2.90;50.40;;;;;;4977665;28;19926;-78
2021/12/10 04:42:57;;;;;;;;;;;2.80;50.20;;;;;;4968708;28;20290;-80
2021/12/10 04:45:24;;;;;;;;;;;2.80;50.70;;;;;;4975477;28;19972;-81
2021/12/10 04:47:51;;;;;;;;;;;2.80;51.70;;;;;;4957187;28;19927;-80
2021/12/10 04:50:19;;;;;;;;;;;2.80;50.70;;;;;;4962010;28;19930;-81
2021/12/10 04:52:46;;;;;;;;;;;2.80;51.70;;;;;;4957705;28;19977;-80
2021/12/10 04:55:14;;;;;;;;;;;2.80;50.80;;;;;;4979307;28;19922;-80
2021/12/10 04:57:42;;;;;;;;;;;2.80;51.00;;;;;;4979894;28;20286;-78
2021/12/10 05:00:10;;;;;;;;;;;2.80;51.20;;;;;;4967679;28;19997;-80
2021/12/10 05:02:37;;;;;;;;;;;2.80;51.00;;;;;;4958248;28;19923;-80
2021/12/10 05:05:05;;;;;;;;;;;2.80;51.00;;;;;;4972622;28;19954;-80
2021/12/10 05:07:35;;;;;;;;;;;2.70;51.30;;;;;;4974528;28;19928;-80
2021/12/10 05:10:06;;;;;;;;;;;2.70;51.50;;;;;;4975403;28;19922;-77
2021/12/10 05:12:33;;;;;;;;;;;2.70;51.80;;;;;;4977305;28;19922;-78
2021/12/10 05:15:01;;;;;;;;;;;2.70;51.40;;;;;;4976130;28;19922;-78
2021/12/10 05:17:30;;;;;;;;;;;2.70;51.80;;;;;;4964461;28;20382;-81
2021/12/10 05:20:00;;;;;;;;;;;2.70;51.30;;;;;;4964590;28;19992;-80
2021/12/10 05:22:27;;;;;;;;;;;2.70;51.70;;;;;;4972448;28;19973;-79
2021/12/10 05:24:54;;;;;;;;;;;2.70;51.50;;;;;;4973299;28;19993;-80
2021/12/10 05:27:20;;;;;;;;;;;2.60;51.70;;;;;;4963829;28;19922;-78
2021/12/10 05:29:47;;;;;;;;;;;2.60;51.80;;;;;;4959146;28;19992;-81
2021/12/10 05:32:17;;;;;;;;;;;2.60;52.30;;;;;;4978614;28;19926;-79
2021/12/10 05:34:44;;;;;;;;;;;2.60;52.30;;;;;;4964312;28;20419;-80
2021/12/10 05:37:12;;;;;;;;;;;2.60;52.30;;;;;;4983273;28;19945;-79
2021/12/10 05:39:39;;;;;;;;;;;2.60;52.00;;;;;;4981206;28;20392;-80
2021/12/10 05:42:06;;;;;;;;;;;2.60;52.50;;;;;;4985056;28;20445;-78
2021/12/10 05:44:33;;;;;;;;;;;2.60;52.30;;;;;;4974893;28;19922;-78
2021/12/10 05:47:01;;;;;;;;;;;2.60;52.50;;;;;;4971425;28;20363;-78
2021/12/10 05:49:28;;;;;;;;;;;2.50;52.20;;;;;;4979467;28;19923;-81
2021/12/10 05:51:55;;;;;;;;;;;2.50;52.80;;;;;;4978725;28;19929;-78
2021/12/10 05:54:22;;;;;;;;;;;2.50;52.80;;;;;;4987545;28;19922;-78
2021/12/10 05:56:49;;;;;;;;;;;2.50;53.10;;;;;;4990043;28;19962;-80
2021/12/10 05:59:16;;;;;;;;;;;2.40;53.40;;;;;;4967961;28;20286;-80
2021/12/10 06:01:44;;;;;;;;;;;2.40;54.60;;;;;;4965309;28;19923;-80
2021/12/10 06:04:11;;;;;;;;;;;2.40;53.60;;;;;;4987350;28;19950;-78
2021/12/10 06:06:37;;;;;;;;;;;2.40;53.20;;;;;;4974444;28;20363;-79
2021/12/10 06:09:06;;;;;;;;;;;2.40;53.10;;;;;;4974575;28;19930;-79
2021/12/10 06:11:33;;;;;;;;;;;2.40;53.10;;;;;;4973251;28;19922;-80
2021/12/10 06:14:00;;;;;;;;;;;2.40;53.70;;;;;;4966429;28;19958;-80
2021/12/10 06:16:27;;;;;;;;;;;2.40;53.70;;;;;;4984551;28;19922;-80
2021/12/10 06:18:54;;;;;;;;;;;2.40;53.70;;;;;;4974237;28;19981;-79
2021/12/10 06:21:21;;;;;;;;;;;2.30;53.60;;;;;;4975139;28;19922;-79
2021/12/10 06:23:48;;;;;;;;;;;2.30;53.60;;;;;;4978051;28;19929;-79
2021/12/10 06:26:15;;;;;;;;;;;2.30;54.00;;;;;;4966099;28;19974;-80
2021/12/10 06:28:44;;;;;;;;;;;2.30;53.60;;;;;;4971486;28;19977;-79
2021/12/10 06:31:15;;;;;;;;;;;2.30;53.60;;;;;;4979851;28;19922;-79
2021/12/10 06:33:42;;;;;;;;;;;2.30;53.80;;;;;;4972317;28;20264;-80
2021/12/10 06:36:09;;;;;;;;;;;2.30;54.30;;;;;;4980704;28;19942;-79
2021/12/10 08:19:06;;;;;;;;;;;3.10;51.90;;;;;;4913395;29;19971;-82
2021/12/10 08:21:34;;;;;;;;;;;3.20;51.40;;;;;;4929677;29;19923;-79
2021/12/10 08:24:00;;;;;;;;;;;3.20;51.10;;;;;;4905131;29;19951;-78
2021/12/10 08:26:27;;;;;;;;;;;3.30;50.60;;;;;;4917582;29;19927;-77
2021/12/10 08:28:54;;;;;;;;;;;3.30;50.90;;;;;;4900477;29;19928;-79
2021/12/10 08:31:21;;;;;;;;;;;3.30;50.80;;;;;;4898922;29;20357;-79
2021/12/10 08:33:49;;;;;;;;;;;3.30;50.80;;;;;;4918505;29;19986;-79
2021/12/10 08:36:17;;;;;;;;;;;3.40;50.70;;;;;;4941254;28;19934;-78
2021/12/10 08:38:44;;;;;;;;;;;3.40;50.80;;;;;;4908073;29;19918;-79
2021/12/10 08:41:13;;;;;;;;;;;3.50;50.20;;;;;;4892651;29;20324;-78
2021/12/10 09:30:31;;;;;;;;;;;4.20;47.90;;;;;;5983477;23;19921;-80
2021/12/10 09:32:58;;;;;;;;;;;4.30;48.30;;;;;;4978317;28;19930;-79
2021/12/10 09:35:27;;;;;;;;;;;4.40;48.60;;;;;;4975855;28;19922;-78
2021/12/10 09:37:55;;;;;;;;;;;4.40;48.20;;;;;;4958568;28;19933;-79
2021/12/10 09:40:27;;;;;;;;;;;4.50;47.50;;;;;;4963168;28;19926;-79
2021/12/10 09:42:55;;;;;;;;;;;4.60;47.50;;;;;;4959470;28;20029;-78
2021/12/10 09:45:23;;;;;;;;;;;4.70;47.50;;;;;;4965408;28;19926;-79
2021/12/10 09:47:51;;;;;;;;;;;4.70;47.70;;;;;;4955461;28;20374;-78
2021/12/10 09:50:19;;;;;;;;;;;4.80;47.70;;;;;;4963100;28;19926;-78
2021/12/10 09:52:46;;;;;;;;;;;4.90;46.80;;;;;;4948270;28;19970;-79
2021/12/10 09:55:14;;;;;;;;;;;4.90;47.20;;;;;;4958209;28;19930;-77
2021/12/10 09:57:42;;;;;;;;;;;4.90;47.50;;;;;;4958745;28;19922;-78
2021/12/10 10:00:27;;;;;;;;;;;4.90;47.70;;;;;;4962503;28;19977;-79
2021/12/10 10:02:55;;;;;;;;;;;5.00;48.30;;;;;;4956468;28;19933;-78
2021/12/10 10:05:27;;;;;;;;;;;5.10;47.70;;;;;;4957004;28;19906;-77
2021/12/10 10:07:55;;;;;;;;;;;5.10;47.70;;;;;;4958731;28;20465;-79
2021/12/10 10:10:24;;;;;;;;;;;5.10;48.10;;;;;;4958503;28;19923;-79
2021/12/10 10:12:51;;;;;;;;;;;5.10;48.30;;;;;;4959854;28;20283;-78
2021/12/10 10:15:20;;;;;;;;;;;5.20;48.80;;;;;;4952461;28;19930;-79
2021/12/10 10:17:53;;;;;;;;;;;5.20;48.80;;;;;;4955498;28;19930;-79
2021/12/10 10:20:20;;;;;;;;;;;5.30;48.60;;;;;;4955442;28;20387;-79
2021/12/10 10:22:47;;;;;;;;;;;5.20;48.80;;;;;;4967365;28;19906;-78
2021/12/10 10:25:16;;;;;;;;;;;5.20;49.00;;;;;;4973398;28;19926;-79
2021/12/10 10:27:43;;;;;;;;;;;5.20;49.30;;;;;;4987248;28;19926;-77
2021/12/10 10:30:12;;;;;;;;;;;5.20;49.40;;;;;;4974123;28;20009;-80
2021/12/10 10:32:44;;;;;;;;;;;5.30;49.10;;;;;;4978830;28;19933;-79
2021/12/10 10:35:21;;;;;;;;;;;5.20;49.70;;;;;;4957888;28;19977;-78
2021/12/10 10:37:48;;;;;;;;;;;5.20;50.30;;;;;;4973977;28;19922;-79
2021/12/10 10:40:17;;;;;;;;;;;5.20;50.20;;;;;;4972128;28;20359;-79
2021/12/10 10:42:44;;;;;;;;;;;5.20;51.00;;;;;;4971415;28;19950;-78
2021/12/10 10:45:17;;;;;;;;;;;5.20;50.10;;;;;;4960278;28;19926;-78
2021/12/10 10:47:44;;;;;;;;;;;5.20;50.40;;;;;;4962563;28;20494;-80
2021/12/10 11:01:34;;;;;;;;;;;5.40;50.00;;;;;;5855122;23;20346;-79
2021/12/10 11:04:26;;;;;;;;;;;5.50;50.10;;;;;;5026070;23;20607;-78
2021/12/10 11:06:56;;;;;;;;;;;5.60;49.70;;;;;;4983105;28;20402;-77
2021/12/10 11:09:26;;;;;;;;;;;5.60;48.80;;;;;;4962607;29;19923;-79
2021/12/10 11:11:58;;;;;;;;;;;5.60;49.20;;;;;;4968602;28;19981;-80
2021/12/10 11:14:25;;;;;;;;;;;5.60;50.30;;;;;;4993379;28;20014;-77
2021/12/10 11:16:54;;;;;;;;;;;5.60;50.90;;;;;;4992236;28;19927;-81
2021/12/10 11:19:47;;;;;;;;;;;5.50;50.00;;;;;;4951143;28;19962;-78
2021/12/10 11:22:15;;;;;;;;;;;5.50;50.70;;;;;;4984585;28;19996;-79
2021/12/10 11:24:47;;;;;;;;;;;5.50;51.30;;;;;;4997357;28;19931;-77
2021/12/10 11:27:17;;;;;;;;;;;5.50;51.20;;;;;;4960518;28;19926;-79
2021/12/10 11:29:47;;;;;;;;;;;5.50;52.20;;;;;;4955359;28;19930;-77
2021/12/10 11:32:26;;;;;;;;;;;5.50;53.20;;;;;;4984895;23;19929;-79
2021/12/10 11:35:11;;;;;;;;;;;5.50;53.30;;;;;;4937740;29;19998;-80
2021/12/10 11:37:46;;;;;;;;;;;5.60;52.90;;;;;;4968450;28;19947;-80
2021/12/10 11:40:27;;;;;;;;;;;5.50;53.80;;;;;;4970311;28;19927;-80
2021/12/10 11:43:00;;;;;;;;;;;5.50;54.80;;;;;;4963629;29;19926;-80
2021/12/10 11:45:35;;;;;;;;;;;5.50;54.10;;;;;;4966213;29;19923;-79
2021/12/10 11:48:08;;;;;;;;;;;5.50;53.70;;;;;;4939480;28;19970;-79
2021/12/10 11:50:37;;;;;;;;;;;5.60;54.50;;;;;;4952733;29;20395;-78
2021/12/10 11:53:06;;;;;;;;;;;5.60;55.30;;;;;;4953736;28;19938;-76
2021/12/10 11:55:35;;;;;;;;;;;5.60;54.80;;;;;;4947596;29;19958;-80
2021/12/10 11:58:03;;;;;;;;;;;5.60;55.10;;;;;;4939751;29;19926;-80
2021/12/10 12:00:33;;;;;;;;;;;5.70;55.50;;;;;;4962437;28;19954;-79
2021/12/10 12:03:03;;;;;;;;;;;5.80;55.70;;;;;;4963618;28;19923;-79
2021/12/10 12:05:36;;;;;;;;;;;5.80;55.50;;;;;;4952454;29;19926;-76
2021/12/10 12:08:05;;;;;;;;;;;6.00;55.60;;;;;;4932120;29;19927;-77
2021/12/10 12:10:37;;;;;;;;;;;6.00;55.00;;;;;;4941050;29;19929;-78
2021/12/10 12:15:56;;;;;;;;;;;6.00;56.90;;;;;;4933038;29;19927;-79
2021/12/10 12:18:25;;;;;;;;;;;6.00;55.60;;;;;;4937037;29;19922;-78
2021/12/10 12:21:00;;;;;;;;;;;6.00;56.50;;;;;;4941657;29;20394;-77
2021/12/10 12:26:19;;;;;;;;;;;5.90;56.80;;;;;;4932782;29;19930;-78
2021/12/10 12:29:11;;;;;;;;;;;5.90;57.20;;;;;;4959698;23;20005;-80
2021/12/10 12:31:43;;;;;;;;;;;5.80;57.90;;;;;;4992122;28;19907;-79
2021/12/10 12:34:14;;;;;;;;;;;5.80;58.90;;;;;;4970971;28;19922;-80
2021/12/10 12:36:49;;;;;;;;;;;5.80;58.10;;;;;;4966617;28;19922;-79
2021/12/10 12:39:29;;;;;;;;;;;5.60;59.00;;;;;;4965446;28;19906;-79
2021/12/10 12:47:20;;;;;;;;;;;5.40;60.60;;;;;;4958565;28;19922;-80
2021/12/10 12:49:47;;;;;;;;;;;5.30;61.50;;;;;;4970956;28;20013;-78
2021/12/10 12:52:19;;;;;;;;;;;5.20;61.70;;;;;;4997367;28;20423;-76
2021/12/10 12:55:05;;;;;;;;;;;5.20;61.90;;;;;;4969899;28;19930;-80
2021/12/10 12:57:40;;;;;;;;;;;5.10;62.50;;;;;;4973246;28;19922;-79
2021/12/10 13:00:29;;;;;;;;;;;5.00;62.80;;;;;;4958317;29;19926;-80
2021/12/10 13:03:00;;;;;;;;;;;5.10;63.40;;;;;;4957586;28;19926;-80
2021/12/10 13:05:33;;;;;;;;;;;5.20;63.80;;;;;;4963107;28;19973;-77
2021/12/10 13:08:23;;;;;;;;;;;5.10;64.10;;;;;;4964134;29;19977;-79
2021/12/10 13:11:12;;;;;;;;;;;5.00;64.40;;;;;;4945318;29;20359;-78
2021/12/10 13:13:44;;;;;;;;;;;4.80;65.40;;;;;;4955667;29;20021;-78
2021/12/10 13:16:13;;;;;;;;;;;4.90;66.20;;;;;;4972506;28;19926;-80
2021/12/10 13:18:41;;;;;;;;;;;4.90;65.80;;;;;;4961798;29;20375;-80
2021/12/10 13:21:09;;;;;;;;;;;4.90;66.20;;;;;;4957188;29;19923;-79
2021/12/10 13:23:37;;;;;;;;;;;4.90;66.50;;;;;;4957103;28;20375;-79
2021/12/10 13:26:06;;;;;;;;;;;4.90;66.60;;;;;;4973521;28;20401;-79
2021/12/10 13:28:33;;;;;;;;;;;4.90;66.80;;;;;;4955274;29;20378;-80
2021/12/10 13:31:08;;;;;;;;;;;4.90;67.50;;;;;;4954798;29;20343;-77
2021/12/10 13:33:36;;;;;;;;;;;4.90;68.10;;;;;;4970585;28;19923;-79
2021/12/10 13:36:04;;;;;;;;;;;4.90;67.90;;;;;;4957370;29;19942;-79
2021/12/10 13:38:32;;;;;;;;;;;4.80;67.80;;;;;;4961066;28;19947;-79
2021/12/10 13:41:01;;;;;;;;;;;4.80;67.70;;;;;;4954250;29;19950;-79
2021/12/10 13:43:29;;;;;;;;;;;4.90;67.50;;;;;;4967579;28;20378;-79
2021/12/10 13:46:07;;;;;;;;;;;4.90;67.20;;;;;;4959504;29;19929;-79
2021/12/10 13:48:45;;;;;;;;;;;4.80;67.20;;;;;;4959716;29;19921;-80
2021/12/10 13:51:14;;;;;;;;;;;4.70;67.50;;;;;;4953991;28;19985;-80
2021/12/10 13:53:41;;;;;;;;;;;4.60;68.60;;;;;;4959068;29;19923;-78
2021/12/10 13:56:09;;;;;;;;;;;4.60;68.70;;;;;;4964028;28;19922;-78
2021/12/10 13:58:41;;;;;;;;;;;4.60;68.70;;;;;;4980344;28;19931;-79
2021/12/10 14:01:15;;;;;;;;;;;4.60;69.00;;;;;;4979147;28;19946;-77
2021/12/10 14:03:48;;;;;;;;;;;4.60;68.90;;;;;;4962454;29;19923;-79
2021/12/10 16:04:37;;;;;;;;;;;2.50;75.70;;;;;;4958966;28;20434;-78
2021/12/10 16:07:07;;;;;;;;;;;2.50;76.10;;;;;;4939150;29;19923;-77
2021/12/10 16:09:35;;;;;;;;;;;2.50;76.00;;;;;;4941451;29;20001;-77
2021/12/10 16:12:02;;;;;;;;;;;2.50;76.30;;;;;;4936022;29;19923;-79
2021/12/10 16:30:44;;;;;;;;;;;2.20;76.80;;;;;;5644217;23;19922;-81
2021/12/10 16:33:12;;;;;;;;;;;2.20;77.20;;;;;;4959212;28;20375;-80
2021/12/10 16:35:46;;;;;;;;;;;2.10;77.80;;;;;;4973968;28;20379;-80
2021/12/10 16:38:15;;;;;;;;;;;2.10;77.60;;;;;;4962096;28;19929;-80
2021/12/10 16:40:44;;;;;;;;;;;2.10;78.40;;;;;;4986525;28;19922;-78
2021/12/10 16:43:15;;;;;;;;;;;2.10;78.40;;;;;;4961008;29;19923;-80
2021/12/10 16:45:42;;;;;;;;;;;2.00;78.50;;;;;;4960885;28;19933;-80
2021/12/10 16:48:16;;;;;;;;;;;2.00;78.80;;;;;;4960566;29;20394;-79
2021/12/10 16:50:44;;;;;;;;;;;2.00;79.40;;;;;;4957842;28;19933;-80
2021/12/10 16:53:11;;;;;;;;;;;1.90;80.20;;;;;;4963559;29;20383;-79
2021/12/10 16:55:39;;;;;;;;;;;1.80;81.30;;;;;;4968496;28;19930;-80
2021/12/10 16:58:10;;;;;;;;;;;1.70;81.70;;;;;;4963782;29;19922;-80
2021/12/10 17:00:41;;;;;;;;;;;1.50;81.60;;;;;;4961092;28;20376;-80
2021/12/10 17:03:15;;;;;;;;;;;1.50;81.30;;;;;;4962886;29;19930;-80
2021/12/10 17:05:43;;;;;;;;;;;1.50;81.00;;;;;;4929274;29;19923;-80
2021/12/10 17:08:18;;;;;;;;;;;1.50;80.70;;;;;;4944449;29;20314;-80
2021/12/10 17:10:45;;;;;;;;;;;1.50;81.00;;;;;;4960132;28;19931;-78
2021/12/10 17:13:15;;;;;;;;;;;1.50;82.30;;;;;;4941422;29;19929;-80
2021/12/10 17:15:42;;;;;;;;;;;1.50;82.90;;;;;;4943424;29;20291;-81
2021/12/10 17:18:11;;;;;;;;;;;1.50;82.80;;;;;;4945720;29;20375;-81
2021/12/10 17:20:40;;;;;;;;;;;1.50;82.70;;;;;;4939948;29;19947;-81
2021/12/10 17:23:09;;;;;;;;;;;1.50;82.90;;;;;;4944981;29;19934;-78
2021/12/10 17:25:38;;;;;;;;;;;1.50;83.10;;;;;;4946555;29;19921;-80
2021/12/10 17:28:09;;;;;;;;;;;1.50;82.80;;;;;;4933636;29;19907;-79
2021/12/10 17:30:47;;;;;;;;;;;1.60;83.00;;;;;;4945425;29;19907;-80
2021/12/10 17:33:18;;;;;;;;;;;1.60;82.50;;;;;;4957240;28;20447;-80
2021/12/10 17:35:47;;;;;;;;;;;1.60;82.40;;;;;;4950061;29;19974;-78
2021/12/10 17:38:15;;;;;;;;;;;1.50;83.20;;;;;;4936272;29;19931;-80
2021/12/10 17:40:55;;;;;;;;;;;1.40;83.30;;;;;;4943334;29;19923;-81
2021/12/10 17:43:24;;;;;;;;;;;1.40;83.00;;;;;;4942463;29;19930;-81
2021/12/10 17:45:56;;;;;;;;;;;1.40;82.70;;;;;;4934388;29;19922;-80
2021/12/10 17:48:29;;;;;;;;;;;1.40;83.00;;;;;;4943158;29;19923;-80
2021/12/10 17:50:57;;;;;;;;;;;1.40;82.90;;;;;;4942490;28;19922;-81
2021/12/10 19:41:40;;;;;;;;;;;0.00;84.30;;;;;;5091036;23;19925;-79
2021/12/10 19:44:16;;;;;;;;;;;0.00;84.80;;;;;;4998415;28;19921;-79
2021/12/10 19:46:46;;;;;;;;;;;-0.10;87.10;;;;;;5012447;28;19929;-79
2021/12/10 19:49:18;;;;;;;;;;;-0.10;85.40;;;;;;4998363;28;20035;-80
2021/12/10 19:51:47;;;;;;;;;;;-0.10;85.20;;;;;;5007892;28;19963;-79
2021/12/10 19:54:25;;;;;;;;;;;-0.10;85.50;;;;;;5010159;28;19928;-78
2021/12/10 19:56:57;;;;;;;;;;;-0.10;85.30;;;;;;5011666;28;19929;-79
2021/12/10 19:59:27;;;;;;;;;;;-0.20;85.20;;;;;;5000156;28;19929;-80
2021/12/10 20:02:02;;;;;;;;;;;-0.20;86.20;;;;;;5004410;28;19976;-78
2021/12/10 20:04:33;;;;;;;;;;;-0.30;86.30;;;;;;5005947;28;19925;-78
2021/12/10 20:07:02;;;;;;;;;;;-0.50;87.40;;;;;;4992063;28;20421;-78
2021/12/10 20:09:35;;;;;;;;;;;-0.50;87.00;;;;;;4987552;28;19945;-80
2021/12/10 20:12:04;;;;;;;;;;;-0.60;86.50;;;;;;4988568;28;20413;-78
2021/12/10 20:14:34;;;;;;;;;;;-0.60;88.90;;;;;;4985805;28;20347;-79
2021/12/10 20:17:06;;;;;;;;;;;-0.60;87.70;;;;;;4984284;28;19921;-78
2021/12/10 20:19:36;;;;;;;;;;;-0.60;87.20;;;;;;4999434;28;19922;-77
2021/12/10 20:22:10;;;;;;;;;;;-0.60;86.80;;;;;;4995803;28;19926;-81
2021/12/10 20:24:40;;;;;;;;;;;-0.60;86.90;;;;;;4995808;28;19997;-78
2021/12/10 20:27:28;;;;;;;;;;;-0.60;87.80;;;;;;4985138;28;19922;-80
2021/12/10 20:30:00;;;;;;;;;;;-0.60;88.00;;;;;;4997492;28;19933;-79
2021/12/10 20:32:31;;;;;;;;;;;-0.70;88.80;;;;;;4981732;28;19921;-78
2021/12/10 20:35:10;;;;;;;;;;;-0.70;88.40;;;;;;4984080;28;20366;-79
2021/12/10 20:37:43;;;;;;;;;;;-0.60;88.10;;;;;;4969819;28;19973;-79
2021/12/10 20:40:18;;;;;;;;;;;-0.70;88.40;;;;;;4977729;28;19928;-79
2021/12/10 20:42:47;;;;;;;;;;;-0.70;88.40;;;;;;4976428;28;19929;-80
2021/12/10 20:45:19;;;;;;;;;;;-0.70;87.90;;;;;;4996684;28;19925;-78
2021/12/10 20:47:48;;;;;;;;;;;-0.80;87.50;;;;;;4983462;28;19973;-78
2021/12/10 20:50:21;;;;;;;;;;;-0.80;87.40;;;;;;4983775;28;19926;-80
2021/12/10 20:52:53;;;;;;;;;;;-0.80;87.10;;;;;;4994163;28;19972;-77
2021/12/10 20:55:31;;;;;;;;;;;-0.80;87.80;;;;;;4998542;28;19957;-79
2021/12/10 20:58:00;;;;;;;;;;;-0.80;87.30;;;;;;4988108;28;19926;-79
2021/12/10 21:00:35;;;;;;;;;;;-0.80;86.70;;;;;;4981131;28;19928;-81
2021/12/10 21:03:05;;;;;;;;;;;-0.90;86.30;;;;;;4991451;28;19928;-81
2021/12/10 21:06:02;;;;;;;;;;;-0.90;86.60;;;;;;4969976;28;19928;-78
2021/12/10 21:08:31;;;;;;;;;;;-1.00;87.50;;;;;;4987084;28;19926;-79
2021/12/10 21:11:05;;;;;;;;;;;-1.00;87.90;;;;;;4965989;28;19921;-78
2021/12/10 21:13:32;;;;;;;;;;;-1.10;88.10;;;;;;4986348;28;19922;-80
2021/12/10 21:16:00;;;;;;;;;;;-1.10;88.70;;;;;;4976792;28;19929;-78
2021/12/10 21:18:31;;;;;;;;;;;-1.10;89.20;;;;;;4999518;28;19945;-79
2021/12/10 21:21:03;;;;;;;;;;;-1.20;87.90;;;;;;4979373;28;19922;-79
2021/12/10 21:23:38;;;;;;;;;;;-1.20;87.40;;;;;;4996131;28;19925;-80
2021/12/10 21:26:18;;;;;;;;;;;-1.20;87.50;;;;;;4984214;28;19959;-78
2021/12/10 21:28:57;;;;;;;;;;;-1.20;87.60;;;;;;4957965;28;20376;-79
2021/12/10 21:31:43;;;;;;;;;;;-1.20;88.10;;;;;;4992578;28;20293;-80
2021/12/10 21:34:12;;;;;;;;;;;-1.30;89.60;;;;;;4977394;28;19933;-79
2021/12/10 21:39:45;;;;;;;;;;;-1.30;88.50;;;;;;4996645;28;19922;-79
2021/12/10 21:42:18;;;;;;;;;;;-1.30;88.10;;;;;;4997212;28;20338;-79
2021/12/10 21:44:48;;;;;;;;;;;-1.30;88.10;;;;;;4988907;28;19929;-78
2021/12/10 21:47:22;;;;;;;;;;;-1.30;88.10;;;;;;4977564;28;19925;-79
2021/12/10 21:49:51;;;;;;;;;;;-1.30;88.00;;;;;;4984166;28;19929;-79